Syringa, Idaho
Current Conditions -  °F | °C
As of 6:15 PM on Saturday 22 Nov 2014 (Local Time) from KGIC Reporting Station
Overcast Overcast  
Wind Chill: 29°   Ceiling: 600
Heat Index: 33°   Visibility: 0.75mi
Dew Point: 31°   Wind: 5mph
Humidity: 93%   Direction: 310°NW
Pressure: 29.86"   Gusts: NA
Location:  46.2989°N, 115.619°W
Report Text: KGIC 230215Z AUTO 31004KT 3/4SM OVC006 01/00 A2986 RMK AO1 P0001 T00051005
Loading
Personal Weather Stations






























Interactive Weather Map New forecast layout! Learn more

10-Day Weather Forecast

Advertisements
Track Severe Weather on mobile